createdAt,value
2019-02-16T00:00:20.694Z,6.03
2019-02-16T00:02:48.841Z,6.70
2019-02-16T00:05:16.910Z,5.83
2019-02-16T00:07:45.196Z,5.43
2019-02-16T00:10:13.388Z,6.37
2019-02-16T00:12:41.455Z,5.63
2019-02-16T00:15:09.653Z,6.40
2019-02-16T00:17:37.890Z,6.00
2019-02-16T00:20:06.452Z,5.33
2019-02-16T00:22:34.659Z,5.83
2019-02-16T00:25:03.078Z,5.20
2019-02-16T00:27:31.548Z,7.63
2019-02-16T00:29:59.659Z,6.03
2019-02-16T00:32:27.791Z,6.03
2019-02-16T00:34:55.926Z,7.33
2019-02-16T00:37:24.135Z,7.40
2019-02-16T00:39:52.530Z,5.80
2019-02-16T00:42:20.629Z,5.90
2019-02-16T00:44:53.139Z,7.23
2019-02-16T00:47:21.225Z,7.03
2019-02-16T00:49:49.599Z,6.07
2019-02-16T00:52:17.827Z,6.60
2019-02-16T00:54:45.925Z,6.10
2019-02-16T00:57:14.288Z,7.77
2019-02-16T00:59:42.850Z,6.70
2019-02-16T01:02:11.232Z,7.70
2019-02-16T01:04:40.186Z,5.97
2019-02-16T01:07:08.280Z,6.23
2019-02-16T01:09:36.403Z,6.30
2019-02-16T01:12:04.492Z,7.73
2019-02-16T01:14:32.593Z,5.93
2019-02-16T01:17:01.653Z,6.00
2019-02-16T01:19:29.794Z,5.63
2019-02-16T01:21:57.880Z,5.83
2019-02-16T01:24:27.353Z,5.10
2019-02-16T01:26:55.487Z,6.27
2019-02-16T01:29:23.640Z,5.60
2019-02-16T01:31:51.690Z,5.63
2019-02-16T01:34:19.967Z,5.50
2019-02-16T01:36:48.080Z,7.60
2019-02-16T01:39:16.402Z,5.70
2019-02-16T01:41:47.528Z,7.40
2019-02-16T01:44:15.847Z,7.03
2019-02-16T01:46:44.160Z,5.30
2019-02-16T01:49:12.323Z,7.20
2019-02-16T01:51:40.432Z,6.43
2019-02-16T01:54:08.618Z,7.10
2019-02-16T01:56:36.868Z,9.53
2019-02-16T01:59:04.937Z,7.60
2019-02-16T02:01:33.321Z,6.53
2019-02-16T02:04:01.454Z,7.20
2019-02-16T02:06:29.983Z,7.53
2019-02-16T02:08:58.313Z,6.83
2019-02-16T02:11:26.525Z,6.47
2019-02-16T02:13:54.661Z,7.20
2019-02-16T02:16:22.956Z,8.40
2019-02-16T02:18:51.282Z,6.73
2019-02-16T02:21:19.438Z,9.13
2019-02-16T02:23:47.982Z,6.63
2019-02-16T02:26:16.173Z,7.37
2019-02-16T02:28:44.308Z,6.83
2019-02-16T02:31:12.422Z,6.63
2019-02-16T02:33:40.554Z,5.90
2019-02-16T02:36:08.805Z,7.27
2019-02-16T02:38:36.989Z,6.87
2019-02-16T02:41:05.177Z,8.43
2019-02-16T02:43:33.341Z,5.97
2019-02-16T02:46:01.486Z,7.37
2019-02-16T02:48:29.875Z,6.93
2019-02-16T02:50:57.970Z,8.57
2019-02-16T02:53:31.229Z,6.33
2019-02-16T02:55:56.332Z,5.20
2019-02-16T02:58:24.811Z,5.97
2019-02-16T03:00:53.248Z,7.87
2019-02-16T03:03:21.431Z,8.57
2019-02-16T03:05:49.776Z,8.20
2019-02-16T03:08:18.317Z,7.63
2019-02-16T03:10:46.468Z,7.50
2019-02-16T03:13:14.573Z,8.57
2019-02-16T03:15:42.785Z,7.03
2019-02-16T03:18:10.850Z,5.77
2019-02-16T03:20:39.021Z,6.00
2019-02-16T03:23:18.958Z,7.50
2019-02-16T03:26:05.566Z,7.63
2019-02-16T03:28:46.032Z,6.23
2019-02-16T03:31:47.767Z,8.27
2019-02-16T03:34:24.611Z,6.67
2019-02-16T03:37:56.075Z,6.20
2019-02-16T03:40:25.168Z,8.60
2019-02-16T03:42:53.399Z,6.20
2019-02-16T03:45:21.504Z,7.20
2019-02-16T03:47:49.712Z,7.83
2019-02-16T03:50:17.878Z,6.93
2019-02-16T03:52:45.960Z,6.17
2019-02-16T03:55:15.019Z,6.03
2019-02-16T03:57:43.165Z,5.90
2019-02-16T04:00:12.017Z,6.00
2019-02-16T04:02:40.146Z,8.57
2019-02-16T04:05:08.457Z,8.10
2019-02-16T04:07:36.673Z,8.03
2019-02-16T04:10:05.523Z,7.27
2019-02-16T04:12:33.606Z,9.83
2019-02-16T04:15:04.095Z,7.33
2019-02-16T04:17:32.262Z,5.60
2019-02-16T04:20:00.466Z,9.30
2019-02-16T04:22:28.606Z,6.70
2019-02-16T04:24:56.763Z,8.87
2019-02-16T04:27:24.795Z,8.00
2019-02-16T04:29:52.838Z,6.90
2019-02-16T04:32:21.000Z,7.60
2019-02-16T04:34:49.532Z,7.17
2019-02-16T04:37:17.812Z,8.03
2019-02-16T04:39:46.028Z,6.10
2019-02-16T04:42:14.450Z,6.57
2019-02-16T04:44:42.721Z,6.90
2019-02-16T04:47:10.914Z,8.77
2019-02-16T04:49:39.099Z,6.93
2019-02-16T04:52:07.883Z,7.80
2019-02-16T04:54:35.975Z,7.03
2019-02-16T04:57:04.113Z,7.77
2019-02-16T04:59:32.414Z,7.83
2019-02-16T05:02:00.628Z,6.33
2019-02-16T05:04:28.715Z,8.20
2019-02-16T05:06:57.350Z,7.87
2019-02-16T05:09:25.592Z,8.73
2019-02-16T05:11:53.666Z,8.97
2019-02-16T05:14:21.767Z,7.27
2019-02-16T05:16:49.935Z,7.03
2019-02-16T05:19:18.035Z,7.97
2019-02-16T05:21:46.184Z,6.83
2019-02-16T05:24:14.289Z,7.30
2019-02-16T05:26:42.452Z,7.50
2019-02-16T05:29:10.534Z,7.10
2019-02-16T05:31:38.643Z,8.23
2019-02-16T05:34:06.895Z,7.67
2019-02-16T05:36:35.121Z,8.70
2019-02-16T05:39:04.611Z,7.80
2019-02-16T05:41:32.977Z,7.67
2019-02-16T05:44:01.104Z,8.27
2019-02-16T05:46:29.240Z,7.40
2019-02-16T05:48:57.299Z,6.23
2019-02-16T05:51:25.400Z,7.43
2019-02-16T05:53:53.495Z,7.13
2019-02-16T05:56:21.604Z,6.33
2019-02-16T05:58:49.991Z,6.77
2019-02-16T06:01:18.098Z,7.33
2019-02-16T06:03:46.639Z,7.40
2019-02-16T06:06:14.936Z,6.90
2019-02-16T06:08:43.111Z,7.10
2019-02-16T06:11:11.315Z,6.67
2019-02-16T06:13:39.535Z,8.60
2019-02-16T06:16:07.776Z,6.70
2019-02-16T06:18:35.920Z,8.77
2019-02-16T06:21:04.142Z,7.97
2019-02-16T06:23:32.267Z,8.37
2019-02-16T06:26:00.484Z,8.93
2019-02-16T06:28:28.596Z,8.07
2019-02-16T06:30:56.891Z,7.97
2019-02-16T06:33:25.576Z,7.37
2019-02-16T06:36:13.501Z,8.63
2019-02-16T06:38:42.188Z,8.40
2019-02-16T06:41:10.367Z,7.57
2019-02-16T06:43:38.761Z,9.53
2019-02-16T06:46:07.045Z,9.70
2019-02-16T06:48:35.148Z,9.70
2019-02-16T06:51:03.252Z,8.77
2019-02-16T06:53:31.436Z,10.83
2019-02-16T06:56:05.379Z,9.53
2019-02-16T06:58:33.563Z,10.37
2019-02-16T07:01:01.638Z,7.97
2019-02-16T07:03:29.704Z,7.20
2019-02-16T07:05:57.827Z,9.23
2019-02-16T07:08:26.283Z,10.83
2019-02-16T07:10:54.621Z,8.43
2019-02-16T07:13:22.696Z,9.93
2019-02-16T07:16:09.267Z,10.07
2019-02-16T07:18:49.161Z,11.23
2019-02-16T07:21:17.281Z,10.63
2019-02-16T07:23:45.465Z,13.63
2019-02-16T07:26:13.608Z,8.17
2019-02-16T07:28:42.019Z,8.63
2019-02-16T07:31:10.047Z,10.00
2019-02-16T07:33:38.190Z,9.07
2019-02-16T07:36:06.300Z,9.50
2019-02-16T07:38:34.446Z,9.30
2019-02-16T07:41:02.677Z,10.37
2019-02-16T07:43:53.546Z,10.50
2019-02-16T07:46:31.097Z,9.00
2019-02-16T07:49:05.446Z,6.73
2019-02-16T07:51:52.165Z,10.27
2019-02-16T07:54:54.992Z,6.80
2019-02-16T07:57:42.815Z,11.17
2019-02-16T08:00:30.537Z,7.70
2019-02-16T08:03:23.735Z,7.80
2019-02-16T08:06:10.061Z,8.67
2019-02-16T08:08:58.291Z,9.70
2019-02-16T08:11:49.034Z,6.87
2019-02-16T08:14:25.892Z,24.43
2019-02-16T08:17:02.549Z,9.67
2019-02-16T08:19:56.666Z,9.10
2019-02-16T08:22:35.832Z,7.80
2019-02-16T08:25:24.034Z,7.90
2019-02-16T08:27:57.980Z,8.57
2019-02-16T08:30:48.474Z,9.03
2019-02-16T08:33:25.456Z,9.27
2019-02-16T08:36:25.180Z,10.73
2019-02-16T08:39:02.015Z,11.43
2019-02-16T08:41:48.612Z,8.53
2019-02-16T08:44:25.628Z,8.13
2019-02-16T08:47:19.853Z,11.17
2019-02-16T08:50:03.973Z,8.10
2019-02-16T08:52:50.851Z,8.03
2019-02-16T08:55:38.034Z,8.43
2019-02-16T08:58:40.826Z,7.50
2019-02-16T09:01:31.233Z,11.07
2019-02-16T09:04:24.804Z,12.00
2019-02-16T09:07:05.809Z,10.07
2019-02-16T09:09:42.808Z,11.07
2019-02-16T09:12:39.835Z,10.47
2019-02-16T09:15:42.941Z,15.67
2019-02-16T09:18:45.666Z,13.10
2019-02-16T09:21:32.220Z,23.17
2019-02-16T09:24:10.319Z,24.83
2019-02-16T09:27:04.009Z,11.63
2019-02-16T09:29:57.552Z,13.27
2019-02-16T09:32:37.716Z,12.10
2019-02-16T09:35:16.704Z,11.60
2019-02-16T09:38:03.379Z,11.20
2019-02-16T09:41:03.104Z,14.20
2019-02-16T09:43:47.053Z,10.43
2019-02-16T09:46:40.732Z,11.13
2019-02-16T09:49:22.893Z,12.70
2019-02-16T09:52:20.173Z,14.97
2019-02-16T09:55:07.933Z,13.10
2019-02-16T09:58:10.807Z,15.33
2019-02-16T10:01:01.373Z,13.90
2019-02-16T10:03:55.097Z,13.20
2019-02-16T10:06:41.518Z,13.80
2019-02-16T10:09:32.054Z,16.10
2019-02-16T10:12:18.618Z,15.50
2019-02-16T10:14:53.914Z,14.20
2019-02-16T10:17:31.357Z,15.37
2019-02-16T10:20:07.651Z,15.63
2019-02-16T10:23:01.305Z,22.50
2019-02-16T10:25:41.713Z,15.43
2019-02-16T10:28:28.214Z,16.67
2019-02-16T10:31:28.091Z,15.23
2019-02-16T10:34:03.381Z,17.40
2019-02-16T10:36:42.763Z,16.47
2019-02-16T10:39:26.813Z,14.53
2019-02-16T10:42:21.443Z,15.77
2019-02-16T10:44:58.550Z,15.73
2019-02-16T10:47:55.618Z,13.43
2019-02-16T10:50:43.595Z,20.93
2019-02-16T10:53:33.117Z,15.67
2019-02-16T10:56:20.031Z,13.43
2019-02-16T10:59:13.850Z,17.00
2019-02-16T11:02:04.803Z,18.67
2019-02-16T11:04:42.263Z,15.20
2019-02-16T11:07:18.574Z,15.23
2019-02-16T11:10:09.124Z,16.17
2019-02-16T11:12:59.841Z,13.83
2019-02-16T11:15:46.103Z,16.80
2019-02-16T11:18:31.435Z,17.10
2019-02-16T11:21:28.593Z,18.27
2019-02-16T11:24:08.707Z,17.47
2019-02-16T11:26:41.803Z,19.10
2019-02-16T11:29:45.195Z,15.97
2019-02-16T11:32:28.751Z,14.93
2019-02-16T11:35:10.332Z,19.50
2019-02-16T11:38:04.295Z,17.63
2019-02-16T11:40:42.388Z,19.00
2019-02-16T11:43:23.241Z,18.83
2019-02-16T11:46:13.746Z,19.13
2019-02-16T11:48:52.166Z,19.17
2019-02-16T11:51:39.923Z,18.63
2019-02-16T11:54:45.674Z,20.13
2019-02-16T11:57:35.517Z,18.33
2019-02-16T12:00:26.681Z,19.73
2019-02-16T12:03:26.546Z,19.60
2019-02-16T12:06:03.463Z,22.03
2019-02-16T12:08:54.724Z,19.13
2019-02-16T12:11:41.755Z,21.10
2019-02-16T12:14:32.524Z,18.30
2019-02-16T12:17:17.492Z,19.97
2019-02-16T12:20:04.177Z,19.07
2019-02-16T12:22:41.971Z,22.63
2019-02-16T12:25:18.963Z,19.13
2019-02-16T12:28:01.502Z,24.50
2019-02-16T12:30:48.090Z,15.83
2019-02-16T12:33:39.294Z,19.33
2019-02-16T12:36:27.712Z,20.27
2019-02-16T12:39:15.742Z,18.47
2019-02-16T12:42:05.814Z,19.87
2019-02-16T12:45:03.070Z,18.83
2019-02-16T12:47:56.864Z,22.33
2019-02-16T12:50:50.468Z,17.57
2019-02-16T12:53:36.877Z,16.23
2019-02-16T12:56:20.731Z,18.53
2019-02-16T12:59:08.564Z,19.73
2019-02-16T13:01:49.197Z,19.53
2019-02-16T13:04:40.341Z,18.87
2019-02-16T13:07:14.418Z,16.73
2019-02-16T13:10:02.818Z,22.57
2019-02-16T13:12:49.911Z,19.87
2019-02-16T13:15:46.997Z,17.93
2019-02-16T13:18:30.852Z,18.57
2019-02-16T13:21:15.012Z,19.83
2019-02-16T13:24:03.556Z,17.37
2019-02-16T13:27:00.270Z,19.50
2019-02-16T13:29:35.986Z,21.70
2019-02-16T13:32:30.604Z,17.37
2019-02-16T13:35:21.154Z,18.50
2019-02-16T13:38:08.963Z,18.77
2019-02-16T13:40:57.320Z,22.07
2019-02-16T13:43:47.664Z,19.83
2019-02-16T13:46:28.977Z,19.33
2019-02-16T13:49:12.123Z,21.67
2019-02-16T13:51:53.559Z,18.60
2019-02-16T13:54:40.139Z,20.37
2019-02-16T13:57:26.423Z,20.63
2019-02-16T14:00:01.407Z,19.00
2019-02-16T14:02:43.424Z,19.23
2019-02-16T14:05:25.971Z,18.27
2019-02-16T14:08:17.312Z,19.00
2019-02-16T14:11:14.309Z,19.13
2019-02-16T14:14:01.970Z,18.50
2019-02-16T14:16:55.869Z,17.83
2019-02-16T14:19:24.334Z,19.93
2019-02-16T14:21:52.421Z,17.83
2019-02-16T14:24:39.642Z,17.40
2019-02-16T14:27:08.004Z,19.13
2019-02-16T14:29:36.194Z,20.90
2019-02-16T14:32:04.369Z,16.10
2019-02-16T14:34:32.448Z,19.20
2019-02-16T14:37:02.389Z,16.20
2019-02-16T14:39:31.867Z,18.60
2019-02-16T14:42:00.188Z,20.10
2019-02-16T14:44:28.298Z,15.93
2019-02-16T14:46:56.510Z,17.77
2019-02-16T14:49:24.698Z,18.03
2019-02-16T14:51:53.242Z,16.73
2019-02-16T14:54:21.319Z,19.73
2019-02-16T14:56:49.483Z,18.70
2019-02-16T14:59:17.850Z,16.97
2019-02-16T15:01:46.284Z,18.03
2019-02-16T15:04:14.427Z,19.17
2019-02-16T15:06:42.552Z,18.97
2019-02-16T15:09:10.764Z,20.13
2019-02-16T15:11:39.231Z,20.40
2019-02-16T15:14:07.430Z,16.50
2019-02-16T15:16:35.573Z,17.87
2019-02-16T15:19:03.960Z,20.17
2019-02-16T15:21:32.049Z,18.33
2019-02-16T15:24:00.129Z,18.40
2019-02-16T15:26:28.943Z,18.07
2019-02-16T15:28:57.973Z,17.47
2019-02-16T15:31:26.062Z,19.83
2019-02-16T15:33:54.330Z,22.37
2019-02-16T15:36:24.219Z,20.90
2019-02-16T15:38:52.495Z,21.23
2019-02-16T15:41:20.677Z,17.67
2019-02-16T15:43:48.759Z,18.37
2019-02-16T15:46:16.968Z,20.73
2019-02-16T15:48:45.040Z,15.83
2019-02-16T15:51:13.242Z,17.97
2019-02-16T15:53:41.399Z,19.03
2019-02-16T15:56:10.797Z,21.83
2019-02-16T15:58:41.764Z,19.47
2019-02-16T16:01:09.838Z,18.93
2019-02-16T16:03:38.020Z,19.57
2019-02-16T16:06:07.251Z,19.87
2019-02-16T16:08:48.745Z,18.20
2019-02-16T16:11:39.200Z,20.47
2019-02-16T16:14:13.583Z,17.97
2019-02-16T16:16:59.492Z,18.90
2019-02-16T16:19:40.502Z,18.27
2019-02-16T16:22:15.387Z,19.37
2019-02-16T16:25:05.766Z,19.77
2019-02-16T16:27:51.020Z,21.50
2019-02-16T16:30:56.772Z,23.10
2019-02-16T16:33:43.350Z,19.53
2019-02-16T16:36:16.778Z,20.77
2019-02-16T16:39:16.612Z,22.97
2019-02-16T16:42:00.332Z,20.90
2019-02-16T16:44:40.531Z,24.07
2019-02-16T16:47:43.718Z,19.57
2019-02-16T16:50:22.526Z,20.80
2019-02-16T16:53:20.934Z,26.90
2019-02-16T16:56:08.789Z,23.17
2019-02-16T16:59:00.161Z,22.70
2019-02-16T17:01:53.464Z,23.47
2019-02-16T17:04:39.748Z,27.20
2019-02-16T17:07:26.561Z,30.40
2019-02-16T17:10:12.929Z,26.30
2019-02-16T17:13:02.316Z,27.17
2019-02-16T17:15:58.925Z,22.90
2019-02-16T17:18:45.771Z,21.90
2019-02-16T17:21:51.702Z,28.90
2019-02-16T17:24:38.269Z,24.07
2019-02-16T17:27:18.601Z,22.20
2019-02-16T17:30:07.181Z,27.47
2019-02-16T17:32:57.973Z,27.50
2019-02-16T17:35:34.459Z,26.20
2019-02-16T17:38:22.298Z,26.73
2019-02-16T17:41:21.978Z,26.63
2019-02-16T17:44:10.464Z,22.57
2019-02-16T17:46:58.366Z,25.23
2019-02-16T17:49:37.276Z,26.67
2019-02-16T17:52:18.931Z,24.50
2019-02-16T17:55:16.546Z,21.97
2019-02-16T17:58:04.267Z,26.50
2019-02-16T18:00:57.894Z,23.10
2019-02-16T18:03:44.817Z,26.20
2019-02-16T18:06:35.518Z,24.40
2019-02-16T18:09:24.332Z,24.87
2019-02-16T18:11:59.147Z,25.77
2019-02-16T18:15:02.484Z,24.27
2019-02-16T18:18:08.227Z,27.43
2019-02-16T18:20:46.271Z,28.13
2019-02-16T18:23:25.689Z,27.90
2019-02-16T18:26:10.114Z,26.00
2019-02-16T18:29:00.964Z,28.60
2019-02-16T18:31:47.557Z,25.40
2019-02-16T18:34:35.246Z,26.87
2019-02-16T18:37:10.081Z,27.47
2019-02-16T18:39:56.340Z,21.67
2019-02-16T18:42:56.566Z,26.80
2019-02-16T18:45:43.473Z,27.40
2019-02-16T18:48:46.495Z,24.60
2019-02-16T18:51:40.445Z,29.37
2019-02-16T18:54:21.230Z,26.17
2019-02-16T18:57:06.873Z,24.73
2019-02-16T18:59:48.397Z,26.17
2019-02-16T19:02:45.194Z,28.33
2019-02-16T19:05:22.281Z,24.43
2019-02-16T19:08:03.386Z,26.00
2019-02-16T19:11:03.687Z,27.20
2019-02-16T19:13:57.822Z,28.03
2019-02-16T19:17:04.045Z,30.00
2019-02-16T19:19:43.436Z,27.33
2019-02-16T19:22:29.090Z,28.67
2019-02-16T19:25:17.111Z,29.37
2019-02-16T19:28:13.619Z,28.50
2019-02-16T19:31:01.543Z,26.37
2019-02-16T19:33:58.161Z,27.37
2019-02-16T19:36:39.080Z,29.00
2019-02-16T19:39:13.353Z,26.83
2019-02-16T19:41:56.101Z,26.43
2019-02-16T19:44:42.487Z,27.40
2019-02-16T19:47:23.278Z,29.57
2019-02-16T19:50:14.300Z,28.80
2019-02-16T19:53:17.244Z,28.93
2019-02-16T19:56:03.614Z,24.47
2019-02-16T19:58:40.529Z,27.37
2019-02-16T20:01:28.812Z,27.37
2019-02-16T20:04:15.837Z,24.53
2019-02-16T20:07:09.809Z,29.83
2019-02-16T20:09:53.899Z,25.13
2019-02-16T20:12:44.789Z,28.57
2019-02-16T20:15:21.395Z,26.30
2019-02-16T20:18:12.493Z,25.43
2019-02-16T20:21:06.034Z,29.33
2019-02-16T20:23:44.101Z,29.67
2019-02-16T20:26:30.473Z,25.93
2019-02-16T20:29:08.649Z,24.97
2019-02-16T20:31:51.233Z,27.93
2019-02-16T20:34:27.888Z,29.43
2019-02-16T20:37:08.970Z,26.47
2019-02-16T20:40:02.033Z,28.03
2019-02-16T20:42:45.638Z,25.70
2019-02-16T20:45:52.922Z,28.30
2019-02-16T20:48:39.722Z,31.67
2019-02-16T20:51:33.573Z,26.30
2019-02-16T20:54:37.014Z,27.30
2019-02-16T20:57:47.715Z,26.77
2019-02-16T21:00:27.366Z,31.37
2019-02-16T21:03:27.033Z,28.40
2019-02-16T21:06:20.956Z,30.17
2019-02-16T21:09:06.097Z,28.77
2019-02-16T21:11:59.934Z,28.73
2019-02-16T21:14:48.002Z,28.67
2019-02-16T21:17:44.706Z,30.20
2019-02-16T21:20:52.188Z,28.60
2019-02-16T21:23:38.937Z,32.47
2019-02-16T21:26:39.816Z,30.53
2019-02-16T21:29:27.025Z,25.77
2019-02-16T21:32:17.555Z,28.53
2019-02-16T21:34:54.165Z,30.13
2019-02-16T21:37:48.427Z,26.40
2019-02-16T21:40:29.530Z,30.17
2019-02-16T21:43:18.025Z,26.20
2019-02-16T21:46:09.368Z,29.43
2019-02-16T21:48:49.667Z,26.40
2019-02-16T21:51:46.931Z,31.83
2019-02-16T21:54:21.847Z,28.50
2019-02-16T21:57:12.879Z,33.00
2019-02-16T22:00:01.467Z,29.03
2019-02-16T22:02:36.272Z,27.60
2019-02-16T22:05:27.287Z,32.37
2019-02-16T22:08:13.994Z,32.20
2019-02-16T22:11:01.829Z,26.33
2019-02-16T22:13:29.936Z,27.90
2019-02-16T22:15:58.950Z,31.63
2019-02-16T22:18:27.230Z,34.63
2019-02-16T22:20:55.436Z,29.13
2019-02-16T22:23:23.565Z,28.13
2019-02-16T22:25:51.869Z,32.43
2019-02-16T22:28:30.552Z,34.10
2019-02-16T22:30:50.860Z,32.80
2019-02-16T22:33:19.365Z,32.10
2019-02-16T22:35:47.467Z,32.63
2019-02-16T22:38:15.867Z,28.67
2019-02-16T22:40:44.341Z,30.50
2019-02-16T22:43:12.509Z,29.03
2019-02-16T22:45:40.595Z,32.40
2019-02-16T22:48:08.661Z,31.80
2019-02-16T22:50:39.886Z,31.27
2019-02-16T22:53:08.448Z,32.30
2019-02-16T22:55:36.645Z,32.30
2019-02-16T22:58:04.827Z,31.73
2019-02-16T23:00:47.500Z,34.23
2019-02-16T23:03:15.946Z,33.70
2019-02-16T23:05:44.052Z,31.40
2019-02-16T23:08:12.243Z,33.43
2019-02-16T23:10:42.169Z,32.60
2019-02-16T23:13:10.248Z,31.47
2019-02-16T23:15:41.229Z,33.00
2019-02-16T23:18:09.425Z,31.73
2019-02-16T23:20:37.815Z,30.90
2019-02-16T23:23:06.173Z,34.73
2019-02-16T23:25:34.322Z,33.30
2019-02-16T23:28:02.933Z,29.33
2019-02-16T23:30:31.032Z,30.43
2019-02-16T23:32:59.183Z,32.43
2019-02-16T23:35:27.276Z,28.87
2019-02-16T23:37:55.452Z,32.97
2019-02-16T23:40:23.578Z,29.37
2019-02-16T23:42:51.796Z,28.43
2019-02-16T23:45:20.210Z,29.93
2019-02-16T23:47:48.353Z,30.30
2019-02-16T23:50:16.485Z,32.33
2019-02-16T23:52:44.620Z,36.37
2019-02-16T23:55:12.701Z,34.00
2019-02-16T23:57:40.840Z,32.70
